Time;durP1;ratioP1;P1;durP2;ratioP2;P2;SDS_P1;SDS_P2;PMS_P1;PMS_P2;Temp;Humidity;BMP_temperature;BMP_pressure;BME280_temperature;BME280_humidity;BME280_pressure;Samples;Min_cycle;Max_cycle;Signal;HPM_P1;HPM_P2
2022/06/04 08:31:43;;;;;;;1.90;1.30;;;;;;;22.15;40.44;99856.38;5118818;27;20594;-68
2022/06/04 08:34:08;;;;;;;2.60;1.10;;;;;;;22.24;40.41;99850.69;5095143;28;20123;-66
2022/06/04 08:36:34;;;;;;;4.47;1.23;;;;;;;22.36;40.18;99852.88;5082554;28;20076;-69
2022/06/04 08:39:00;;;;;;;6.28;1.40;;;;;;;22.44;40.07;99847.38;5069808;28;20028;-69
2022/06/04 08:41:39;;;;;;;3.70;1.90;;;;;;;22.53;40.02;99854.34;5074644;28;20032;-68
2022/06/04 08:44:11;;;;;;;4.15;1.10;;;;;;;22.63;39.85;99855.88;5089401;28;20448;-71
2022/06/04 08:46:45;;;;;;;4.07;1.15;;;;;;;22.70;39.56;99846.81;5091327;28;20036;-67
2022/06/04 08:49:14;;;;;;;2.28;1.02;;;;;;;22.77;39.46;99840.66;5093904;28;20078;-68
2022/06/04 08:51:43;;;;;;;3.53;1.10;;;;;;;22.84;39.26;99844.25;5084149;28;20487;-70
2022/06/04 08:59:52;;;;;;;8.70;1.48;;;;;;;23.03;39.14;99840.03;5072793;28;20120;-68
2022/06/04 09:02:23;;;;;;;4.80;1.20;;;;;;;23.09;38.81;99830.31;5082158;28;20118;-69
2022/06/04 09:04:59;;;;;;;2.10;0.90;;;;;;;23.11;38.90;99826.44;5087685;28;20032;-69
2022/06/04 09:07:44;;;;;;;1.45;1.00;;;;;;;23.15;38.75;99830.41;5070927;28;20698;-71
2022/06/04 09:10:12;;;;;;;5.20;1.15;;;;;;;23.19;38.56;99832.69;5068945;28;20037;-69
2022/06/04 09:12:43;;;;;;;3.08;1.02;;;;;;;23.21;38.22;99831.50;5068789;28;20036;-70
2022/06/04 09:15:17;;;;;;;;;;;;;;;23.16;38.61;99823.13;5069877;28;20498;-71
2022/06/04 09:17:48;;;;;;;3.08;1.10;;;;;;;23.18;38.08;99821.06;5069011;28;19986;-69
2022/06/04 09:20:47;;;;;;;2.58;0.90;;;;;;;23.21;37.93;99818.03;5068891;28;20117;-69
2022/06/04 09:23:26;;;;;;;2.67;1.25;;;;;;;23.24;38.06;99819.47;5069491;28;20037;-69
2022/06/04 09:25:59;;;;;;;1.25;1.00;;;;;;;23.24;37.84;99812.19;5068760;28;20056;-70
2022/06/04 09:28:34;;;;;;;2.50;1.10;;;;;;;23.25;37.60;99797.66;5068767;28;20029;-70
2022/06/04 09:31:04;;;;;;;1.05;0.85;;;;;;;23.29;37.44;99808.94;5068463;28;20053;-70
2022/06/04 09:33:42;;;;;;;2.03;1.20;;;;;;;23.28;37.35;99801.88;5068671;28;20043;-68
2022/06/04 09:36:11;;;;;;;1.08;0.85;;;;;;;23.30;37.02;99810.59;5068560;28;20402;-70
2022/06/04 09:38:37;;;;;;;1.67;1.00;;;;;;;23.32;37.11;99805.81;5068506;28;20043;-69
2022/06/04 09:41:18;;;;;;;3.50;0.95;;;;;;;23.33;36.80;99795.88;5066986;28;20020;-69
2022/06/04 09:43:45;;;;;;;1.35;1.05;;;;;;;23.31;36.68;99796.03;5055596;28;20033;-69
2022/06/04 09:46:13;;;;;;;2.30;1.20;;;;;;;23.32;36.71;99795.00;5055407;28;20033;-71
2022/06/04 09:48:47;;;;;;;2.42;1.35;;;;;;;23.34;36.75;99792.13;5055461;28;20037;-69
2022/06/04 09:51:22;;;;;;;1.08;0.93;;;;;;;23.35;36.64;99793.81;5054921;28;20416;-70
2022/06/04 09:53:54;;;;;;;1.70;1.20;;;;;;;23.35;36.46;99791.09;5055162;28;20029;-72
2022/06/04 09:56:40;;;;;;;1.65;1.05;;;;;;;23.38;36.82;99804.22;5055006;28;20395;-70
2022/06/04 09:59:30;;;;;;;1.65;1.20;;;;;;;23.36;36.45;99790.91;5055081;28;20055;-70
2022/06/04 10:02:01;;;;;;;1.50;1.10;;;;;;;23.35;36.55;99793.81;5065714;28;20437;-70
2022/06/04 10:04:48;;;;;;;2.83;1.77;;;;;;;23.36;36.42;99798.19;5074986;28;20040;-71
2022/06/04 10:07:26;;;;;;;3.85;1.10;;;;;;;23.37;36.51;99797.16;5074517;28;20112;-70
2022/06/04 10:09:58;;;;;;;5.15;1.35;;;;;;;23.37;36.53;99792.56;5074607;28;20434;-71
2022/06/04 10:15:36;;;;;;;2.55;1.27;;;;;;;23.39;36.51;99789.66;5023497;28;20399;-70
2022/06/04 10:18:22;;;;;;;2.85;1.08;;;;;;;23.40;36.38;99792.16;5074492;28;20038;-70
2022/06/04 10:20:56;;;;;;;4.47;1.20;;;;;;;23.40;36.24;99794.88;5058561;28;20017;-70
2022/06/04 10:23:22;;;;;;;1.83;1.27;;;;;;;23.41;36.23;99799.25;5054357;28;20025;-70
2022/06/04 10:26:26;;;;;;;1.80;1.52;;;;;;;23.41;36.44;99791.13;5054686;28;20043;-71
2022/06/04 10:29:22;;;;;;;1.65;1.10;;;;;;;23.40;36.13;99797.56;5054703;28;20029;-71
2022/06/04 10:32:06;;;;;;;1.85;0.93;;;;;;;23.40;36.38;99784.06;5054462;28;20401;-69
2022/06/04 10:34:42;;;;;;;2.35;1.17;;;;;;;23.42;36.23;99795.50;5054176;28;20036;-70
2022/06/04 10:37:32;;;;;;;4.38;1.73;;;;;;;23.42;36.33;99795.50;5054195;28;20506;-69
2022/06/04 10:40:22;;;;;;;3.03;1.30;;;;;;;23.42;36.72;99791.97;5054282;28;20059;-69
2022/06/04 10:42:54;;;;;;;2.00;1.35;;;;;;;23.41;36.86;99785.75;5054251;28;20040;-70
2022/06/04 10:45:32;;;;;;;1.88;1.10;;;;;;;23.42;36.69;99795.50;5054338;28;20029;-69
2022/06/04 10:48:06;;;;;;;4.50;1.23;;;;;;;23.43;36.47;99786.38;5054887;28;20029;-70
2022/06/04 10:53:34;;;;;;;2.42;1.20;;;;;;;23.44;36.83;99785.34;5053577;28;20470;-69
2022/06/04 10:56:08;;;;;;;1.83;1.10;;;;;;;23.46;36.61;99768.94;5053671;28;20051;-70
2022/06/04 10:58:37;;;;;;;3.65;1.63;;;;;;;23.46;36.79;99769.75;5053904;28;20039;-70
2022/06/04 11:01:11;;;;;;;3.25;1.52;;;;;;;23.47;36.46;99776.00;5054022;28;20039;-70
2022/06/04 11:03:48;;;;;;;6.00;2.97;;;;;;;23.49;36.62;99773.94;5053787;28;20037;-70
2022/06/04 11:06:24;;;;;;;11.68;4.78;;;;;;;23.49;36.90;99775.78;5053808;28;20120;-69
2022/06/04 11:09:14;;;;;;;18.05;7.47;;;;;;;23.50;36.85;99775.59;5054117;28;20404;-69
2022/06/04 11:11:49;;;;;;;23.70;7.95;;;;;;;23.50;37.08;99772.91;5053492;28;20037;-70
2022/06/04 11:14:52;;;;;;;23.90;8.90;;;;;;;23.52;37.24;99784.34;5053709;28;20479;-70
2022/06/04 11:17:29;;;;;;;19.10;8.05;;;;;;;23.51;37.59;99785.38;5053550;28;20404;-69
2022/06/04 11:20:03;;;;;;;19.75;7.28;;;;;;;23.54;37.53;99781.44;5053468;28;20541;-69
2022/06/04 11:22:33;;;;;;;16.08;6.57;;;;;;;23.55;37.47;99777.72;5053358;28;20056;-68
2022/06/04 11:25:01;;;;;;;18.67;8.15;;;;;;;23.55;37.35;99777.72;5053397;28;20060;-71
2022/06/04 11:27:41;;;;;;;15.43;6.20;;;;;;;23.57;37.47;99770.25;5053306;28;20033;-69
2022/06/04 11:30:14;;;;;;;9.30;4.90;;;;;;;23.55;37.65;99777.72;5052931;28;20057;-68
2022/06/04 11:33:04;;;;;;;12.75;5.65;;;;;;;23.55;37.46;99778.53;5053009;28;20036;-69
2022/06/04 11:35:48;;;;;;;14.80;4.93;;;;;;;23.53;37.17;99775.19;5053178;28;20067;-69
2022/06/04 11:38:17;;;;;;;8.50;3.78;;;;;;;23.52;37.24;99772.69;5053261;28;20116;-69
2022/06/04 11:40:50;;;;;;;6.45;3.17;;;;;;;23.52;36.86;99768.16;5053169;28;20033;-70
2022/06/04 11:43:15;;;;;;;6.13;2.47;;;;;;;23.52;37.04;99775.41;5052906;28;20037;-70
2022/06/04 11:46:20;;;;;;;4.40;2.40;;;;;;;23.51;36.44;99763.78;5053376;28;20119;-71
2022/06/04 11:48:55;;;;;;;4.45;2.33;;;;;;;23.49;36.11;99767.69;5052802;28;20071;-70
2022/06/04 11:51:57;;;;;;;4.70;1.88;;;;;;;23.50;36.20;99763.97;5052797;28;20029;-68
2022/06/04 11:54:37;;;;;;;4.50;1.60;;;;;;;23.47;36.02;99759.81;5052799;28;20150;-69
2022/06/04 11:57:32;;;;;;;5.60;1.73;;;;;;;23.49;35.61;99756.88;5052799;28;20037;-70
2022/06/04 12:00:19;;;;;;;3.92;2.03;;;;;;;23.46;35.59;99756.25;5052861;28;20256;-68
2022/06/04 12:02:58;;;;;;;3.10;1.58;;;;;;;23.44;35.46;99752.09;5053049;28;20033;-69
2022/06/04 12:05:40;;;;;;;3.30;1.90;;;;;;;23.46;35.47;99756.25;5052420;28;20086;-69
2022/06/04 12:08:12;;;;;;;5.00;2.17;;;;;;;23.44;35.48;99744.00;5052433;28;20117;-70
2022/06/04 12:11:02;;;;;;;3.00;1.50;;;;;;;23.44;35.68;99739.44;5052653;28;20029;-69
2022/06/04 12:13:47;;;;;;;4.70;1.38;;;;;;;23.44;35.56;99739.44;5052437;28;20036;-70
2022/06/04 12:16:23;;;;;;;2.20;1.42;;;;;;;23.44;35.12;99734.03;5052678;28;20028;-69
2022/06/04 12:25:15;;;;;;;;;;;;;;;23.35;35.67;99731.72;5052954;28;20047;-70
2022/06/04 12:28:03;;;;;;;2.35;1.48;;;;;;;23.39;35.39;99739.19;5052209;28;19913;-68
2022/06/04 12:30:40;;;;;;;4.38;1.48;;;;;;;23.41;35.61;99734.44;5052404;28;20060;-68
2022/06/04 12:33:24;;;;;;;2.65;1.60;;;;;;;23.43;35.65;99729.69;5052568;28;20032;-69
2022/06/04 12:35:59;;;;;;;2.72;1.50;;;;;;;23.43;35.63;99716.16;5052216;28;20040;-68
2022/06/04 12:38:25;;;;;;;2.78;1.05;;;;;;;23.45;35.92;99711.38;5053264;28;20043;-69
2022/06/04 12:40:51;;;;;;;2.42;1.60;;;;;;;23.47;35.96;99714.72;5052729;28;20032;-69
2022/06/04 12:43:28;;;;;;;3.50;1.73;;;;;;;23.49;35.65;99711.84;5052161;28;20033;-70
2022/06/04 12:46:16;;;;;;;2.75;1.50;;;;;;;23.50;35.61;99715.34;5052421;28;20033;-71
2022/06/04 12:49:33;;;;;;;2.70;1.75;;;;;;;23.48;35.57;99710.16;5052440;28;20521;-69
2022/06/04 12:51:59;;;;;;;3.55;1.58;;;;;;;23.45;35.67;99702.47;5030546;28;20049;-70
2022/06/04 12:54:29;;;;;;;2.63;1.40;;;;;;;23.47;35.58;99703.91;5052140;28;20032;-69
2022/06/04 12:57:04;;;;;;;6.38;1.60;;;;;;;23.47;35.71;99706.63;5051865;28;20033;-71
2022/06/04 12:59:39;;;;;;;4.78;1.48;;;;;;;23.49;35.67;99700.19;5052017;28;20037;-69
2022/06/04 13:02:24;;;;;;;5.43;1.58;;;;;;;23.48;35.71;99696.66;5052092;28;20029;-69
2022/06/04 13:05:17;;;;;;;1.98;1.30;;;;;;;23.48;35.60;99696.66;5051501;28;20036;-69
2022/06/04 13:08:11;;;;;;;2.10;1.30;;;;;;;23.46;35.45;99691.44;5052114;28;20059;-72
2022/06/04 13:11:00;;;;;;;4.95;1.73;;;;;;;23.45;35.43;99686.25;5017688;28;20053;-70
2022/06/04 13:13:58;;;;;;;5.35;1.20;;;;;;;23.46;35.43;99675.25;5052097;28;20094;-69
2022/06/04 13:16:29;;;;;;;2.08;1.45;;;;;;;23.44;35.44;99676.50;5052265;28;20025;-68
2022/06/04 13:19:12;;;;;;;2.45;1.40;;;;;;;23.45;35.49;99675.44;5055932;28;20029;-70
2022/06/04 13:21:45;;;;;;;5.68;2.13;;;;;;;23.43;35.76;99667.56;5055784;28;20496;-70
2022/06/04 13:24:17;;;;;;;4.72;1.40;;;;;;;23.46;35.80;99666.31;5055452;28;20547;-70
2022/06/04 13:27:00;;;;;;;;;;;;;;;23.40;35.71;99670.66;5056140;28;20033;-70
2022/06/04 13:29:30;;;;;;;2.05;1.40;;;;;;;23.41;35.58;99666.94;5055466;28;20525;-70
2022/06/04 13:31:59;;;;;;;2.72;1.90;;;;;;;23.45;35.47;99662.78;5055368;28;20484;-70
2022/06/04 13:34:27;;;;;;;1.98;1.40;;;;;;;23.46;35.70;99667.13;5055642;28;20036;-68
2022/06/04 13:37:01;;;;;;;1.90;1.50;;;;;;;23.45;35.17;99665.47;5055368;28;20051;-71
2022/06/04 13:39:27;;;;;;;3.35;1.60;;;;;;;23.47;34.92;99668.81;5055884;28;20511;-70
2022/06/04 13:42:01;;;;;;;4.63;1.73;;;;;;;23.46;35.06;99663.63;5055190;28;20048;-71
2022/06/04 13:44:27;;;;;;;2.33;1.52;;;;;;;23.46;35.07;99664.44;5055554;28;20041;-68
2022/06/04 13:46:53;;;;;;;1.90;1.35;;;;;;;23.43;35.23;99656.78;5055143;28;20086;-69
2022/06/04 13:49:25;;;;;;;2.60;1.50;;;;;;;23.46;35.41;99661.75;5055523;28;20453;-70
2022/06/04 13:51:58;;;;;;;4.97;1.58;;;;;;;23.47;34.80;99657.19;5055305;28;20494;-72
2022/06/04 13:54:36;;;;;;;2.55;1.77;;;;;;;23.45;34.80;99654.66;5055334;28;20124;-70
2022/06/04 13:57:21;;;;;;;6.03;1.63;;;;;;;23.45;34.92;99651.97;5054982;28;20032;-71
2022/06/04 13:59:49;;;;;;;6.05;1.50;;;;;;;23.44;34.72;99649.50;5055577;28;20025;-69
2022/06/04 14:02:20;;;;;;;3.88;2.10;;;;;;;23.44;34.94;99647.63;5054946;28;20457;-69
2022/06/04 14:07:36;;;;;;;3.90;1.83;;;;;;;23.44;34.85;99647.63;5055144;28;20090;-71
2022/06/04 14:10:04;;;;;;;3.60;1.73;;;;;;;23.45;34.50;99648.44;5054748;28;20166;-70
2022/06/04 14:12:29;;;;;;;6.32;1.67;;;;;;;23.45;34.47;99648.44;5054822;28;20033;-71
2022/06/04 14:15:13;;;;;;;2.83;1.40;;;;;;;23.46;34.79;99640.13;5054686;28;20037;-70
2022/06/04 14:17:57;;;;;;;2.70;1.30;;;;;;;23.45;34.72;99632.25;5054836;28;20379;-70
2022/06/04 14:20:39;;;;;;;4.03;1.73;;;;;;;23.44;34.74;99630.59;5054849;28;20033;-69
2022/06/04 14:23:29;;;;;;;3.83;1.55;;;;;;;23.46;34.79;99636.63;5054561;28;20120;-70
2022/06/04 14:26:05;;;;;;;3.63;1.85;;;;;;;23.44;34.56;99636.84;5037427;28;20029;-71
2022/06/04 14:28:38;;;;;;;3.00;1.88;;;;;;;23.46;34.59;99631.22;5054237;28;20120;-69
2022/06/04 14:31:15;;;;;;;2.70;1.33;;;;;;;23.46;34.55;99632.03;5054103;28;20475;-71
2022/06/04 14:33:43;;;;;;;3.28;1.58;;;;;;;23.44;34.49;99631.44;5054615;28;20504;-70
2022/06/04 14:36:18;;;;;;;2.67;1.20;;;;;;;23.43;34.46;99624.38;5070969;28;20032;-69
2022/06/04 14:38:46;;;;;;;1.98;1.30;;;;;;;23.44;34.34;99620.63;5074239;28;20442;-68
2022/06/04 14:41:20;;;;;;;2.40;1.63;;;;;;;23.45;34.48;99616.88;5073836;28;20480;-69
2022/06/04 14:43:48;;;;;;;2.05;1.65;;;;;;;23.46;34.72;99623.13;5073991;28;20116;-72
2022/06/04 14:46:44;;;;;;;2.53;1.73;;;;;;;23.45;34.73;99622.28;5073884;28;20403;-69
2022/06/04 14:49:15;;;;;;;3.22;1.80;;;;;;;23.44;34.74;99617.94;5074027;28;20028;-70
2022/06/04 14:52:02;;;;;;;5.45;1.65;;;;;;;23.45;34.89;99614.16;5073820;28;20070;-68
2022/06/04 14:54:32;;;;;;;7.60;1.73;;;;;;;23.45;35.14;99611.47;5073890;28;20040;-69
2022/06/04 14:57:16;;;;;;;4.10;1.85;;;;;;;23.45;34.87;99614.16;5074298;28;20093;-69
2022/06/04 15:00:26;;;;;;;3.35;1.45;;;;;;;23.45;34.96;99611.47;5074064;28;20118;-69
2022/06/04 15:03:10;;;;;;;2.47;1.50;;;;;;;23.45;35.24;99606.06;5061102;28;20041;-70
2022/06/04 15:05:59;;;;;;;6.18;1.95;;;;;;;23.44;34.97;99612.53;5053635;28;20488;-70
2022/06/04 15:08:32;;;;;;;2.65;1.92;;;;;;;23.46;34.77;99615.03;5054038;28;20029;-71
2022/06/04 15:11:20;;;;;;;2.63;1.60;;;;;;;23.46;34.97;99607.72;5053459;28;20032;-70
2022/06/04 15:13:48;;;;;;;1.92;1.50;;;;;;;23.46;35.13;99594.22;5053922;28;20593;-71
2022/06/04 15:16:40;;;;;;;2.17;1.38;;;;;;;23.47;35.10;99601.28;5053626;28;20504;-68
2022/06/04 15:19:28;;;;;;;3.95;1.65;;;;;;;23.45;35.03;99600.66;5053995;28;20037;-69
2022/06/04 15:22:12;;;;;;;3.17;1.73;;;;;;;23.46;35.15;99599.63;5053440;28;20033;-71
2022/06/04 15:24:57;;;;;;;3.80;1.55;;;;;;;23.45;34.93;99603.38;5053560;28;20032;-69
2022/06/04 15:27:25;;;;;;;2.80;1.63;;;;;;;23.46;34.95;99598.81;5053252;28;20040;-71
2022/06/04 15:36:14;;;;;;;3.08;1.27;;;;;;;23.42;34.96;99584.91;5069768;28;20620;-70
2022/06/04 15:38:54;;;;;;;4.25;1.80;;;;;;;23.43;34.81;99581.16;5056395;28;20055;-69
2022/06/04 15:41:19;;;;;;;5.35;1.20;;;;;;;23.43;35.09;99591.97;5072821;28;20505;-71
2022/06/04 15:43:45;;;;;;;1.98;1.38;;;;;;;23.44;34.80;99582.81;5072989;28;20059;-69
2022/06/04 15:46:19;;;;;;;2.10;1.30;;;;;;;23.45;35.00;99584.47;5072847;28;20032;-70
2022/06/04 15:48:49;;;;;;;2.90;1.35;;;;;;;23.45;35.16;99575.53;5073528;28;20028;-69
2022/06/04 15:57:39;;;;;;;4.07;1.75;;;;;;;23.43;35.06;99578.47;5072834;28;20035;-72
2022/06/04 16:00:14;;;;;;;2.25;1.30;;;;;;;23.43;34.99;99580.31;5073151;28;20052;-68
2022/06/04 16:02:41;;;;;;;4.45;1.60;;;;;;;23.43;35.10;99575.75;5072557;28;20029;-68
2022/06/04 16:05:13;;;;;;;2.53;1.73;;;;;;;23.44;35.08;99580.13;5072753;28;20028;-69
2022/06/04 16:08:06;;;;;;;1.73;1.40;;;;;;;23.46;34.99;99572.63;5072531;28;20071;-69
2022/06/04 16:10:35;;;;;;;2.72;1.35;;;;;;;23.44;35.11;99573.88;5072744;28;20060;-68
2022/06/04 16:13:03;;;;;;;3.38;1.90;;;;;;;23.44;35.05;99577.44;5070072;28;20087;-69
2022/06/04 16:15:55;;;;;;;1.92;1.50;;;;;;;23.45;34.97;99564.75;5052833;28;20439;-70
2022/06/04 16:18:40;;;;;;;4.00;1.63;;;;;;;23.45;35.27;99570.16;5051996;28;20049;-67
2022/06/04 16:21:17;;;;;;;2.53;1.50;;;;;;;23.42;34.98;99563.28;5052623;28;20484;-70
2022/06/04 16:24:20;;;;;;;2.65;1.52;;;;;;;23.44;35.09;99571.19;5052255;28;20033;-68
2022/06/04 16:26:54;;;;;;;5.00;2.17;;;;;;;23.42;35.20;99566.00;5052376;28;20488;-68
2022/06/04 16:29:21;;;;;;;1.55;1.20;;;;;;;23.42;35.14;99565.16;5051987;28;20035;-71
2022/06/04 16:32:13;;;;;;;2.83;1.55;;;;;;;23.43;35.48;99567.66;5052397;28;20415;-70
2022/06/04 16:34:49;;;;;;;2.28;1.52;;;;;;;23.41;35.32;99572.44;5052247;28;20037;-70
2022/06/04 16:37:26;;;;;;;2.00;1.42;;;;;;;23.41;35.06;99567.03;5051907;28;20025;-71
2022/06/04 16:39:51;;;;;;;1.95;1.35;;;;;;;23.40;35.27;99565.38;5052432;28;20025;-70
2022/06/04 16:42:25;;;;;;;4.95;1.33;;;;;;;23.41;35.13;99571.59;5052053;28;20503;-67
2022/06/04 16:45:06;;;;;;;2.58;1.50;;;;;;;23.40;35.50;99568.06;5052047;28;20036;-68
2022/06/04 16:47:56;;;;;;;3.80;1.23;;;;;;;23.40;35.27;99564.53;5051899;28;20408;-69
2022/06/04 16:50:24;;;;;;;2.10;1.52;;;;;;;23.39;35.57;99569.09;5051916;28;20036;-67
2022/06/04 16:52:50;;;;;;;2.33;1.15;;;;;;;23.40;35.40;99569.91;5053867;28;20029;-67
2022/06/04 16:55:21;;;;;;;2.15;1.50;;;;;;;23.38;35.29;99559.34;5056281;28;20039;-69
2022/06/04 16:57:48;;;;;;;2.83;1.58;;;;;;;23.39;35.56;99565.56;5056402;28;20401;-68
2022/06/04 17:00:17;;;;;;;2.55;1.50;;;;;;;23.38;35.44;99562.03;5056153;28;20040;-68
2022/06/04 17:03:07;;;;;;;2.47;1.58;;;;;;;23.38;35.53;99562.03;5056105;28;20391;-71
2022/06/04 17:05:59;;;;;;;2.28;1.33;;;;;;;23.36;35.46;99561.41;5056641;28;20029;-69
2022/06/04 17:08:48;;;;;;;1.70;1.30;;;;;;;23.37;35.44;99559.56;5056222;28;20154;-71
2022/06/04 17:11:32;;;;;;;5.28;1.50;;;;;;;23.36;35.62;99558.69;5055834;28;20029;-68
2022/06/04 17:14:27;;;;;;;4.00;1.58;;;;;;;23.34;35.66;99560.78;5055726;28;20510;-71
2022/06/04 17:17:05;;;;;;;3.20;1.77;;;;;;;23.33;35.61;99559.09;5056018;28;20179;-69
2022/06/04 17:19:53;;;;;;;2.50;1.40;;;;;;;23.33;35.85;99561.81;5055749;28;20036;-70
2022/06/04 17:22:33;;;;;;;2.70;1.33;;;;;;;23.32;35.94;99562.84;5044666;28;20037;-69
2022/06/04 17:25:13;;;;;;;1.30;1.02;;;;;;;23.32;35.85;99562.84;5055487;28;20056;-68
2022/06/04 17:28:00;;;;;;;2.22;1.35;;;;;;;23.29;35.74;99558.69;5055363;28;20043;-70
2022/06/04 17:30:44;;;;;;;2.35;1.30;;;;;;;23.29;35.85;99571.38;5055018;28;20053;-68
2022/06/04 17:33:12;;;;;;;2.75;1.65;;;;;;;23.28;35.80;99561.59;5055576;28;20051;-68
2022/06/04 17:36:03;;;;;;;2.00;1.33;;;;;;;23.28;36.00;99570.53;5067863;28;20071;-69
2022/06/04 17:38:54;;;;;;;1.77;1.23;;;;;;;23.27;36.10;99568.03;5075475;28;20036;-68
2022/06/04 17:41:43;;;;;;;2.75;1.60;;;;;;;23.26;36.04;99569.88;5075392;28;20032;-69
2022/06/04 17:44:08;;;;;;;2.60;1.52;;;;;;;23.24;36.15;99574.66;5075703;28;20090;-70
2022/06/04 17:46:33;;;;;;;5.15;1.55;;;;;;;23.25;35.95;99567.41;5075246;28;20036;-70
2022/06/04 17:48:59;;;;;;;2.83;1.48;;;;;;;23.25;36.21;99576.31;5075195;28;20043;-68
2022/06/04 17:51:26;;;;;;;3.42;1.48;;;;;;;23.25;36.09;99568.22;5074946;28;20037;-69
2022/06/04 17:53:51;;;;;;;5.00;1.70;;;;;;;23.22;36.35;99568.66;5074919;28;20533;-69
2022/06/04 17:56:17;;;;;;;4.00;1.65;;;;;;;23.24;36.18;99577.34;5074837;28;20032;-68
2022/06/04 17:58:43;;;;;;;3.83;1.63;;;;;;;23.23;36.37;99570.31;5057670;28;20039;-69
2022/06/04 18:01:08;;;;;;;2.65;1.90;;;;;;;23.23;36.08;99566.78;5075348;28;20064;-69
2022/06/04 18:03:34;;;;;;;2.53;1.70;;;;;;;23.22;36.23;99568.66;5060547;28;20451;-69
2022/06/04 18:06:00;;;;;;;3.45;1.63;;;;;;;23.22;36.45;99568.66;5055024;28;20033;-68
2022/06/04 18:08:25;;;;;;;4.30;1.95;;;;;;;23.20;36.45;99569.84;5054717;28;20036;-69
2022/06/04 18:10:51;;;;;;;4.93;2.10;;;;;;;23.20;36.43;99569.84;5054732;28;20090;-71
2022/06/04 18:13:16;;;;;;;4.68;1.60;;;;;;;23.21;36.30;99568.84;5054919;28;20049;-70
2022/06/04 18:15:45;;;;;;;3.85;1.90;;;;;;;23.20;36.67;99575.22;5054580;28;20032;-71
2022/06/04 18:18:11;;;;;;;2.60;1.67;;;;;;;23.19;36.49;99573.56;5054524;28;20488;-71
2022/06/04 18:20:37;;;;;;;2.92;1.90;;;;;;;23.19;36.56;99576.25;5054718;28;20037;-69
2022/06/04 18:23:04;;;;;;;3.10;1.80;;;;;;;23.17;36.59;99574.59;5054849;28;20540;-68
2022/06/04 18:25:29;;;;;;;4.35;1.95;;;;;;;23.17;36.53;99573.78;5054603;28;20033;-68
2022/06/04 18:27:56;;;;;;;5.68;1.60;;;;;;;23.17;36.42;99576.47;5054669;28;20532;-68
2022/06/04 18:30:22;;;;;;;3.33;1.85;;;;;;;23.16;36.53;99569.41;5054256;28;20205;-68
2022/06/04 18:32:51;;;;;;;4.63;2.17;;;;;;;23.15;36.74;99567.75;5054248;28;20036;-70
2022/06/04 18:35:16;;;;;;;4.13;1.95;;;;;;;23.15;36.75;99573.16;5054379;28;20052;-70
2022/06/04 18:37:42;;;;;;;4.85;1.90;;;;;;;23.13;36.37;99570.66;5054073;28;20429;-69
2022/06/04 18:40:09;;;;;;;8.13;2.20;;;;;;;23.12;36.82;99566.31;5054187;28;20037;-72
2022/06/04 18:56:15;;;;;;;4.07;2.05;;;;;;;23.06;36.95;99572.50;5054177;28;20094;-69
2022/06/04 18:58:40;;;;;;;4.43;2.70;;;;;;;23.06;36.95;99563.56;5054059;28;20055;-70
2022/06/04 19:01:06;;;;;;;8.05;3.30;;;;;;;23.05;36.80;99560.03;5053987;28;20492;-69
2022/06/04 19:03:32;;;;;;;4.28;2.33;;;;;;;23.04;36.97;99558.38;5054072;28;20450;-70
2022/06/04 19:05:58;;;;;;;6.82;3.00;;;;;;;23.04;36.97;99563.75;5053948;28;20402;-71
2022/06/04 19:08:24;;;;;;;5.30;2.63;;;;;;;23.03;36.91;99559.41;5053736;28;20128;-69
2022/06/04 19:13:42;;;;;;;3.65;2.47;;;;;;;23.00;36.99;99560.66;5053780;28;20106;-71
2022/06/04 19:16:12;;;;;;;5.38;2.85;;;;;;;23.00;36.96;99566.03;5052877;28;20060;-69
2022/06/04 19:18:40;;;;;;;3.65;2.63;;;;;;;22.99;37.06;99555.47;5053881;28;20037;-68
2022/06/04 19:26:34;;;;;;;4.55;2.63;;;;;;;22.95;37.17;99546.09;5053610;28;20412;-69
2022/06/04 19:29:00;;;;;;;5.55;3.28;;;;;;;22.96;37.34;99559.38;5053353;28;20041;-69
2022/06/04 19:31:26;;;;;;;5.00;3.15;;;;;;;22.95;37.38;99554.19;5053105;28;20090;-69
2022/06/04 19:33:51;;;;;;;5.90;3.47;;;;;;;22.95;37.35;99546.91;5053551;28;20385;-70
2022/06/04 19:36:17;;;;;;;7.45;3.40;;;;;;;22.95;37.17;99555.00;5053153;28;20043;-70
2022/06/04 19:38:42;;;;;;;4.53;2.90;;;;;;;22.94;37.22;99556.03;5053433;28;20120;-68
2022/06/04 19:41:07;;;;;;;6.18;3.28;;;;;;;22.95;37.29;99552.31;5053311;28;20029;-70
2022/06/04 19:43:34;;;;;;;6.32;4.38;;;;;;;22.94;37.41;99547.94;5053002;28;20032;-70
2022/06/04 19:46:02;;;;;;;6.25;3.78;;;;;;;22.92;37.41;99547.34;5052956;28;20036;-70
2022/06/04 19:48:28;;;;;;;4.47;3.40;;;;;;;22.92;37.43;99546.50;5053359;28;20131;-68
2022/06/04 19:50:54;;;;;;;10.45;3.53;;;;;;;22.92;37.36;99552.75;5053087;28;20128;-68
2022/06/04 19:56:09;;;;;;;7.95;3.78;;;;;;;22.90;37.57;99548.56;5053076;28;20082;-67
2022/06/04 19:58:35;;;;;;;8.85;4.50;;;;;;;22.90;37.41;99541.31;5053115;28;20047;-68
2022/06/04 20:01:01;;;;;;;6.20;3.83;;;;;;;22.89;37.63;99541.50;5053037;28;20029;-70
2022/06/04 20:03:26;;;;;;;5.47;4.05;;;;;;;22.89;37.71;99544.19;5053224;28;20091;-69
2022/06/04 20:05:52;;;;;;;11.02;4.78;;;;;;;22.87;37.70;99549.81;5052961;28;20095;-68
2022/06/04 20:08:18;;;;;;;6.53;4.07;;;;;;;22.86;37.74;99548.97;5034847;28;20041;-69
2022/06/04 20:10:45;;;;;;;10.05;4.30;;;;;;;22.88;37.72;99545.22;5053185;28;20032;-70
2022/06/04 20:13:10;;;;;;;9.35;4.72;;;;;;;22.87;37.90;99544.41;5052699;28;20032;-71
2022/06/04 20:15:36;;;;;;;8.52;4.68;;;;;;;22.85;37.91;99547.31;5052509;28;20052;-69
2022/06/04 20:18:05;;;;;;;7.60;4.80;;;;;;;22.85;37.68;99544.63;5052852;28;20028;-68
2022/06/04 20:20:30;;;;;;;7.95;4.68;;;;;;;22.84;37.66;99544.81;5052717;28;20400;-69
2022/06/04 20:22:56;;;;;;;6.47;4.80;;;;;;;22.83;37.96;99543.13;5052661;28;20041;-69
2022/06/04 20:25:22;;;;;;;8.30;4.05;;;;;;;22.82;37.89;99542.31;5052296;28;20047;-68
2022/06/04 20:27:47;;;;;;;10.98;4.55;;;;;;;22.81;37.87;99537.94;5052877;28;20040;-68
2022/06/04 20:30:13;;;;;;;7.38;4.03;;;;;;;22.81;37.90;99537.94;5052401;28;20049;-69
2022/06/04 20:32:39;;;;;;;10.18;4.78;;;;;;;22.80;38.03;99532.75;5052603;28;20029;-70
2022/06/04 20:35:05;;;;;;;7.10;4.13;;;;;;;22.80;38.01;99539.00;5052224;28;20041;-68
2022/06/04 20:37:31;;;;;;;8.32;4.07;;;;;;;22.80;37.81;99533.59;5052343;28;20047;-69
2022/06/04 20:39:57;;;;;;;9.98;4.72;;;;;;;22.79;37.92;99531.09;5052656;28;20119;-69
2022/06/04 20:42:24;;;;;;;8.10;3.80;;;;;;;22.78;38.00;99530.25;5052548;28;20064;-69
2022/06/04 20:44:50;;;;;;;7.30;4.45;;;;;;;22.78;37.96;99534.84;5052052;28;20114;-70
2022/06/04 20:47:17;;;;;;;7.57;4.13;;;;;;;22.75;38.06;99530.66;5052182;28;20033;-68
2022/06/04 20:49:44;;;;;;;5.35;3.92;;;;;;;22.77;38.27;99534.00;5052536;28;20048;-68
2022/06/04 20:52:11;;;;;;;7.00;4.03;;;;;;;22.77;38.06;99541.25;5052218;28;20038;-68
2022/06/04 20:54:41;;;;;;;6.47;4.20;;;;;;;22.76;38.02;99532.31;5052133;28;20127;-69
2022/06/04 20:57:07;;;;;;;8.02;4.38;;;;;;;22.74;38.22;99523.59;5052410;28;20519;-69
2022/06/04 20:59:33;;;;;;;8.55;4.38;;;;;;;22.73;38.32;99524.63;5052087;28;20036;-71
2022/06/04 21:01:59;;;;;;;6.40;4.40;;;;;;;22.72;38.29;99528.34;5051932;28;20095;-68
2022/06/04 21:04:24;;;;;;;7.70;4.00;;;;;;;22.71;38.07;99519.44;5051960;28;20028;-69
2022/06/04 21:06:50;;;;;;;8.65;4.80;;;;;;;22.70;38.14;99533.97;5052081;28;20025;-70
2022/06/04 21:09:18;;;;;;;8.85;4.47;;;;;;;22.67;38.11;99528.13;5052062;28;20053;-68
2022/06/04 21:11:46;;;;;;;7.75;4.32;;;;;;;22.67;38.29;99526.25;5052188;28;20029;-68
2022/06/04 21:14:12;;;;;;;8.73;4.82;;;;;;;22.66;38.43;99531.88;5051968;28;20507;-69
2022/06/04 21:16:39;;;;;;;7.63;4.57;;;;;;;22.64;38.30;99528.53;5051816;28;20032;-70
2022/06/04 21:19:05;;;;;;;8.85;4.68;;;;;;;22.64;38.42;99525.84;5052183;28;20112;-68
2022/06/04 21:21:31;;;;;;;6.53;4.20;;;;;;;22.61;38.48;99521.69;5051810;28;20519;-70
2022/06/04 21:24:00;;;;;;;6.90;4.03;;;;;;;22.60;38.68;99519.19;5051717;28;20024;-70
2022/06/04 21:26:31;;;;;;;7.22;4.28;;;;;;;22.59;38.47;99521.06;5052105;28;20048;-68
2022/06/04 21:28:57;;;;;;;8.35;4.50;;;;;;;22.58;38.54;99519.38;5052181;28;20076;-70
2022/06/04 21:31:25;;;;;;;6.88;4.40;;;;;;;22.58;38.62;99516.69;5051624;28;20567;-70
2022/06/04 21:33:50;;;;;;;8.63;4.65;;;;;;;22.55;38.61;99509.84;5051823;28;20039;-70
2022/06/04 21:39:06;;;;;;;8.93;3.95;;;;;;;22.52;38.79;99515.63;5055217;28;20035;-70